createdAt,value
2023-01-03T00:00:59.198Z,17.30
2023-01-03T00:05:59.420Z,20.23
2023-01-03T00:10:58.160Z,18.30
2023-01-03T00:15:57.257Z,15.70
2023-01-03T00:20:56.054Z,15.68
2023-01-03T00:25:56.195Z,14.98
2023-01-03T00:30:55.020Z,16.52
2023-01-03T00:35:53.776Z,13.00
2023-01-03T00:40:52.761Z,17.83
2023-01-03T00:45:53.125Z,19.08
2023-01-03T00:50:52.185Z,15.13
2023-01-03T00:55:51.288Z,15.68
2023-01-03T01:00:50.249Z,18.48
2023-01-03T01:05:50.509Z,18.10
2023-01-03T01:11:02.919Z,27.00
2023-01-03T01:16:06.646Z,79.18
2023-01-03T01:21:08.407Z,86.07
2023-01-03T01:26:08.869Z,66.70
2023-01-03T01:31:09.053Z,38.58
2023-01-03T01:36:10.512Z,36.80
2023-01-03T01:41:09.369Z,22.67
2023-01-03T01:46:17.471Z,39.28
2023-01-03T01:51:19.472Z,61.85
2023-01-03T01:56:22.693Z,49.00
2023-01-03T02:01:23.329Z,30.30
2023-01-03T02:06:25.470Z,23.33
2023-01-03T02:11:32.689Z,22.50
2023-01-03T02:16:48.508Z,24.10
2023-01-03T02:22:37.684Z,21.25
2023-01-03T02:28:21.009Z,27.88
2023-01-03T02:33:31.375Z,24.37
2023-01-03T02:38:42.634Z,27.70
2023-01-03T02:43:49.061Z,27.52
2023-01-03T02:48:55.559Z,24.48
2023-01-03T02:53:54.650Z,21.45
2023-01-03T02:58:58.025Z,20.85
2023-01-03T03:03:59.440Z,19.73
2023-01-03T03:08:58.496Z,19.60
2023-01-03T03:14:01.876Z,18.83
2023-01-03T03:19:03.386Z,31.42
2023-01-03T03:24:26.512Z,19.65
2023-01-03T03:29:27.991Z,17.38
2023-01-03T03:34:32.219Z,20.50
2023-01-03T03:39:50.152Z,19.88
2023-01-03T03:45:02.982Z,19.80
2023-01-03T03:50:07.618Z,26.70
2023-01-03T03:55:13.206Z,19.70
2023-01-03T04:00:17.385Z,16.50
2023-01-03T04:05:20.610Z,21.30
2023-01-03T04:10:20.832Z,21.98
2023-01-03T04:15:19.965Z,24.95
2023-01-03T04:20:20.707Z,17.13
2023-01-03T04:25:19.493Z,18.52
2023-01-03T04:30:18.620Z,35.80
2023-01-03T04:35:17.489Z,54.67
2023-01-03T04:40:17.834Z,19.05
2023-01-03T04:45:17.253Z,33.40
2023-01-03T04:50:16.157Z,27.98
2023-01-03T04:55:14.960Z,27.52
2023-01-03T05:00:16.264Z,21.70
2023-01-03T05:05:15.165Z,19.55
2023-01-03T05:10:14.071Z,21.63
2023-01-03T05:15:14.381Z,34.22
2023-01-03T05:20:30.801Z,37.13
2023-01-03T05:25:47.321Z,30.75
2023-01-03T05:30:47.496Z,26.30
2023-01-03T05:35:48.583Z,28.98
2023-01-03T05:40:47.567Z,30.65
2023-01-03T05:45:51.651Z,47.47
2023-01-03T05:50:52.412Z,41.35
2023-01-03T05:55:51.690Z,41.85
2023-01-03T06:00:51.929Z,37.13
2023-01-03T06:05:50.780Z,35.70
2023-01-03T06:10:49.630Z,95.25
2023-01-03T06:16:08.683Z,158.52
2023-01-03T06:21:09.256Z,135.90
2023-01-03T06:26:08.190Z,106.32
2023-01-03T06:31:07.666Z,76.78
2023-01-03T06:36:10.601Z,86.45
2023-01-03T06:41:09.445Z,72.78
2023-01-03T06:46:25.958Z,112.60
2023-01-03T06:51:44.910Z,100.32
2023-01-03T06:56:43.691Z,126.32
2023-01-03T07:01:42.898Z,94.82
2023-01-03T07:06:43.493Z,74.28
2023-01-03T07:11:43.216Z,96.53
2023-01-03T07:16:45.398Z,183.98
2023-01-03T07:21:46.268Z,78.05
2023-01-03T07:26:46.961Z,63.25
2023-01-03T07:31:45.829Z,55.20
2023-01-03T07:36:46.080Z,52.10
2023-01-03T07:42:02.368Z,47.80
2023-01-03T07:47:01.256Z,38.25
2023-01-03T07:52:01.544Z,39.03
2023-01-03T07:57:01.111Z,33.70
2023-01-03T08:02:00.042Z,31.60
2023-01-03T08:06:59.068Z,28.45
2023-01-03T08:12:16.559Z,30.83
2023-01-03T08:17:15.369Z,34.05
2023-01-03T08:22:14.286Z,32.63
2023-01-03T08:27:14.664Z,37.50
2023-01-03T08:32:14.044Z,26.00
2023-01-03T08:37:17.052Z,20.80
2023-01-03T08:42:21.226Z,22.77
2023-01-03T08:47:20.827Z,22.17
2023-01-03T08:52:19.707Z,26.13
2023-01-03T08:57:20.074Z,20.15
2023-01-03T09:02:18.995Z,30.23
2023-01-03T09:07:17.918Z,26.48
2023-01-03T09:12:16.701Z,26.25
2023-01-03T09:17:16.863Z,24.88
2023-01-03T09:22:15.620Z,27.77
2023-01-03T09:27:14.439Z,21.52
2023-01-03T09:32:13.335Z,18.83
2023-01-03T09:37:13.606Z,20.30
2023-01-03T09:42:38.390Z,16.63
2023-01-03T09:47:40.314Z,18.17
2023-01-03T09:53:05.281Z,20.45
2023-01-03T09:58:21.834Z,16.92
2023-01-03T10:03:54.524Z,16.92
2023-01-03T10:09:08.165Z,17.88
2023-01-03T10:14:30.107Z,14.90
2023-01-03T10:19:50.825Z,13.40
2023-01-03T10:24:57.130Z,15.98
2023-01-03T10:30:01.487Z,17.73
2023-01-03T10:35:18.581Z,16.67
2023-01-03T10:40:19.200Z,19.15
2023-01-03T10:45:20.898Z,18.52
2023-01-03T10:50:23.442Z,23.73
2023-01-03T10:55:26.530Z,15.40
2023-01-03T11:00:29.848Z,18.13
2023-01-03T11:05:32.199Z,15.32
2023-01-03T11:10:38.287Z,14.10
2023-01-03T11:15:39.753Z,11.73
2023-01-03T11:20:45.189Z,13.00
2023-01-03T11:25:52.866Z,11.80
2023-01-03T11:30:59.295Z,14.48
2023-01-03T11:36:11.224Z,12.93
2023-01-03T11:41:27.635Z,20.03
2023-01-03T11:46:47.277Z,19.95
2023-01-03T11:51:54.012Z,14.98
2023-01-03T11:56:54.635Z,23.15
2023-01-03T12:02:17.841Z,24.15
2023-01-03T12:07:47.058Z,17.80
2023-01-03T12:13:06.284Z,12.98
2023-01-03T12:18:14.076Z,12.88
2023-01-03T12:23:20.486Z,14.30
2023-01-03T12:28:27.653Z,16.70
2023-01-03T12:33:32.674Z,16.73
2023-01-03T12:38:37.615Z,19.85
2023-01-03T12:43:52.490Z,17.00
2023-01-03T12:48:59.540Z,15.55
2023-01-03T12:54:17.821Z,20.33
2023-01-03T12:59:39.378Z,14.57
2023-01-03T13:04:43.246Z,18.60
2023-01-03T13:09:46.965Z,14.80
2023-01-03T13:14:55.479Z,18.42
2023-01-03T13:19:57.472Z,17.10
2023-01-03T13:24:56.413Z,16.08
2023-01-03T13:30:02.338Z,20.70
2023-01-03T13:35:33.459Z,16.30
2023-01-03T13:41:16.159Z,15.07
2023-01-03T13:45:56.324Z,16.13
2023-01-03T13:51:09.091Z,17.98
2023-01-03T13:56:24.794Z,15.00
2023-01-03T14:01:39.168Z,13.57
2023-01-03T14:07:06.388Z,21.00
2023-01-03T14:12:43.552Z,23.25
2023-01-03T14:17:48.501Z,24.92
2023-01-03T14:22:50.494Z,19.80
2023-01-03T14:32:49.859Z,21.02
2023-01-03T14:37:48.814Z,24.13
2023-01-03T14:42:48.201Z,38.75
2023-01-03T14:47:47.926Z,35.25
2023-01-03T14:52:52.962Z,28.50
2023-01-03T14:57:52.880Z,61.28
2023-01-03T15:02:52.309Z,91.15
2023-01-03T15:07:53.108Z,107.55
2023-01-03T15:13:00.745Z,95.72
2023-01-03T15:18:05.235Z,63.03
2023-01-03T15:23:06.121Z,66.60
2023-01-03T15:28:24.592Z,39.83
2023-01-03T15:33:33.237Z,32.10
2023-01-03T15:38:37.652Z,36.17
2023-01-03T15:43:39.339Z,50.42
2023-01-03T15:48:38.473Z,47.63
2023-01-03T15:53:44.591Z,65.55
2023-01-03T15:58:48.042Z,40.97
2023-01-03T16:03:58.150Z,39.92
2023-01-03T16:08:58.423Z,44.92
2023-01-03T16:13:59.747Z,45.00
2023-01-03T16:18:59.296Z,39.28
2023-01-03T16:23:59.676Z,34.63
2023-01-03T16:28:59.529Z,32.70
2023-01-03T16:34:09.127Z,35.28
2023-01-03T16:39:16.457Z,28.63
2023-01-03T16:44:15.245Z,28.27
2023-01-03T16:49:14.212Z,27.83
2023-01-03T16:54:16.540Z,31.65
2023-01-03T16:59:16.178Z,34.60
2023-01-03T17:04:15.174Z,26.08
2023-01-03T17:09:17.620Z,33.50
2023-01-03T17:14:20.093Z,39.90
2023-01-03T17:20:01.906Z,36.08
2023-01-03T17:24:41.539Z,41.55
2023-01-03T17:29:41.563Z,43.00
2023-01-03T17:34:40.336Z,61.17
2023-01-03T17:39:40.641Z,66.78
2023-01-03T17:44:39.536Z,107.65
2023-01-03T17:49:37.277Z,94.97
2023-01-03T17:54:40.475Z,74.15
2023-01-03T17:59:42.241Z,78.63
2023-01-03T18:05:14.214Z,70.60
2023-01-03T18:10:06.666Z,59.80
2023-01-03T18:15:18.220Z,63.67
2023-01-03T18:20:31.860Z,63.75
2023-01-03T18:25:33.087Z,62.67
2023-01-03T18:30:35.093Z,68.25
2023-01-03T18:35:39.054Z,68.80
2023-01-03T18:40:43.641Z,76.05
2023-01-03T18:45:44.174Z,91.95
2023-01-03T18:50:43.914Z,124.57
2023-01-03T18:55:43.324Z,126.07
2023-01-03T19:00:43.732Z,122.47
2023-01-03T19:05:42.744Z,111.45
2023-01-03T19:10:41.723Z,105.25
2023-01-03T19:15:40.558Z,110.03
2023-01-03T19:20:40.894Z,96.85
2023-01-03T19:25:39.866Z,90.50
2023-01-03T19:30:40.511Z,95.68
2023-01-03T19:35:40.785Z,99.28
2023-01-03T19:40:41.471Z,105.80
2023-01-03T19:45:42.562Z,104.72
2023-01-03T19:50:42.840Z,86.55
2023-01-03T19:55:44.132Z,82.05
2023-01-03T20:00:46.010Z,80.97
2023-01-03T20:05:49.295Z,82.97
2023-01-03T20:10:53.845Z,77.63
2023-01-03T20:15:58.072Z,83.95
2023-01-03T20:21:02.342Z,88.38
2023-01-03T20:26:06.885Z,89.40
2023-01-03T20:31:08.817Z,105.83
2023-01-03T20:36:23.136Z,98.25
2023-01-03T20:41:37.590Z,127.95
2023-01-03T20:46:43.574Z,126.85
2023-01-03T20:51:46.129Z,123.00
2023-01-03T20:56:48.268Z,120.00
2023-01-03T21:01:50.836Z,113.72
2023-01-03T21:06:52.927Z,107.47
2023-01-03T21:11:52.708Z,119.65
2023-01-03T21:16:54.011Z,144.40
2023-01-03T21:22:07.046Z,133.48
2023-01-03T21:27:06.506Z,142.38
2023-01-03T21:32:13.233Z,146.02
2023-01-03T21:37:19.272Z,145.20
2023-01-03T21:47:34.389Z,145.57
2023-01-03T21:52:34.704Z,146.82
2023-01-03T21:57:35.547Z,106.07
2023-01-03T22:02:56.216Z,90.15
2023-01-03T22:08:01.119Z,80.95
2023-01-03T22:13:02.265Z,95.85
2023-01-03T22:18:01.132Z,66.72
2023-01-03T22:23:01.379Z,52.95
2023-01-03T22:28:00.165Z,51.55
2023-01-03T22:32:59.712Z,48.72
2023-01-03T22:37:58.521Z,41.40
2023-01-03T22:42:58.699Z,43.60
2023-01-03T22:47:59.268Z,33.63
2023-01-03T22:52:58.104Z,28.23
2023-01-03T22:57:58.193Z,34.95
2023-01-03T23:02:57.103Z,37.42
2023-01-03T23:07:55.886Z,42.10
2023-01-03T23:13:00.822Z,51.70
2023-01-03T23:18:01.022Z,67.07
2023-01-03T23:23:04.416Z,72.22
2023-01-03T23:33:03.076Z,53.10
2023-01-03T23:38:01.846Z,57.63
2023-01-03T23:43:00.951Z,63.15
2023-01-03T23:48:00.337Z,59.80
2023-01-03T23:53:00.782Z,67.10
2023-01-03T23:57:59.547Z,69.95
